Time;durP1;ratioP1;P1;durP2;ratioP2;P2;SDS_P1;SDS_P2;PMS_P1;PMS_P2;Temp;Humidity;BMP_temperature;BMP_pressure;BME280_temperature;BME280_humidity;BME280_pressure;Samples;Min_cycle;Max_cycle;Signal;HPM_P1;HPM_P2
2022/07/22 00:01:39;;;;;;;;;;;20.00;83.20;;;;;;5023271;28;19957;-66
2022/07/22 00:04:04;;;;;;;;;;;20.00;83.20;;;;;;5022669;28;20365;-66
2022/07/22 00:06:30;;;;;;;;;;;20.00;83.00;;;;;;5022343;28;19936;-66
2022/07/22 00:08:55;;;;;;;;;;;20.10;83.10;;;;;;5022851;28;19977;-66
2022/07/22 00:11:22;;;;;;;;;;;20.00;83.10;;;;;;5022867;28;19967;-66
2022/07/22 00:13:47;;;;;;;;;;;20.00;83.00;;;;;;5022897;28;19994;-66
2022/07/22 00:16:13;;;;;;;;;;;20.00;83.00;;;;;;5022246;28;20553;-66
2022/07/22 00:18:39;;;;;;;;;;;20.00;82.80;;;;;;5022590;28;19920;-66
2022/07/22 00:21:04;;;;;;;;;;;20.00;83.00;;;;;;5004973;28;19921;-66
2022/07/22 00:23:30;;;;;;;;;;;20.00;82.90;;;;;;5022713;28;19913;-66
2022/07/22 00:25:55;;;;;;;;;;;19.90;83.00;;;;;;5022171;28;20021;-66
2022/07/22 00:28:21;;;;;;;;;;;20.00;83.30;;;;;;5022947;28;20340;-66
2022/07/22 00:30:47;;;;;;;;;;;20.00;83.10;;;;;;5022842;28;19913;-66
2022/07/22 00:33:12;;;;;;;;;;;19.90;83.20;;;;;;5022430;28;20060;-66
2022/07/22 00:35:38;;;;;;;;;;;19.90;83.20;;;;;;5022566;28;19913;-66
2022/07/22 00:38:03;;;;;;;;;;;20.00;83.30;;;;;;5025014;28;19958;-66
2022/07/22 00:40:29;;;;;;;;;;;19.90;83.30;;;;;;5025924;28;20372;-66
2022/07/22 00:42:54;;;;;;;;;;;19.90;83.30;;;;;;5022585;28;20342;-66
2022/07/22 00:45:20;;;;;;;;;;;19.90;83.20;;;;;;5022245;28;20020;-66
2022/07/22 00:47:45;;;;;;;;;;;19.90;83.20;;;;;;5022113;28;19937;-66
2022/07/22 00:50:11;;;;;;;;;;;19.90;83.30;;;;;;5029104;28;19931;-66
2022/07/22 00:52:37;;;;;;;;;;;19.90;83.40;;;;;;5040543;28;20384;-66
2022/07/22 00:55:04;;;;;;;;;;;19.90;83.30;;;;;;5040425;28;19912;-66
2022/07/22 00:57:29;;;;;;;;;;;19.90;83.10;;;;;;5029356;28;19917;-66
2022/07/22 00:59:55;;;;;;;;;;;19.90;83.40;;;;;;5022091;28;19913;-66
2022/07/22 01:02:20;;;;;;;;;;;19.90;83.30;;;;;;5022336;28;19913;-66
2022/07/22 01:04:46;;;;;;;;;;;19.90;83.30;;;;;;5037864;28;19913;-66
2022/07/22 01:07:11;;;;;;;;;;;19.80;83.00;;;;;;5029756;28;19921;-66
2022/07/22 01:09:37;;;;;;;;;;;19.90;83.30;;;;;;5040528;28;19913;-66
2022/07/22 01:12:02;;;;;;;;;;;19.80;83.20;;;;;;5039740;28;19921;-66
2022/07/22 01:14:28;;;;;;;;;;;19.80;83.10;;;;;;5040779;28;19944;-66
2022/07/22 01:16:53;;;;;;;;;;;19.80;83.50;;;;;;5039796;28;19919;-66
2022/07/22 01:19:19;;;;;;;;;;;19.80;83.20;;;;;;5040740;28;19916;-66
2022/07/22 01:21:45;;;;;;;;;;;19.80;83.20;;;;;;5040635;28;19912;-66
2022/07/22 01:24:10;;;;;;;;;;;19.80;83.30;;;;;;5031402;28;19917;-66
2022/07/22 01:26:36;;;;;;;;;;;19.80;83.10;;;;;;5021839;28;20053;-66
2022/07/22 01:29:02;;;;;;;;;;;19.80;83.20;;;;;;5038330;28;19924;-66
2022/07/22 01:31:27;;;;;;;;;;;19.80;83.20;;;;;;5040126;28;19916;-66
2022/07/22 01:33:53;;;;;;;;;;;19.80;83.30;;;;;;5023229;28;20020;-66
2022/07/22 01:36:19;;;;;;;;;;;19.70;83.20;;;;;;5022232;28;20429;-66
2022/07/22 01:38:45;;;;;;;;;;;19.70;83.90;;;;;;5031228;28;20296;-66
2022/07/22 01:41:10;;;;;;;;;;;19.70;83.10;;;;;;5023416;28;20029;-66
2022/07/22 01:43:36;;;;;;;;;;;19.70;83.30;;;;;;5021721;28;19912;-66
2022/07/22 01:46:02;;;;;;;;;;;19.70;83.00;;;;;;5021544;28;20047;-66
2022/07/22 01:48:27;;;;;;;;;;;19.70;83.00;;;;;;5021015;28;20412;-66
2022/07/22 01:50:53;;;;;;;;;;;19.70;83.00;;;;;;5021990;28;19909;-66
2022/07/22 01:53:18;;;;;;;;;;;19.70;83.20;;;;;;5021895;28;20458;-66
2022/07/22 01:55:44;;;;;;;;;;;19.70;83.20;;;;;;5003804;28;20285;-66
2022/07/22 01:58:10;;;;;;;;;;;19.70;83.20;;;;;;5003007;28;19924;-66
2022/07/22 02:00:36;;;;;;;;;;;19.70;83.20;;;;;;5021217;28;19913;-66
2022/07/22 02:03:01;;;;;;;;;;;19.70;83.20;;;;;;5021095;28;19963;-66
2022/07/22 02:05:27;;;;;;;;;;;19.70;83.20;;;;;;5020395;28;19921;-66
2022/07/22 02:07:53;;;;;;;;;;;19.70;83.20;;;;;;5002838;28;20422;-66
2022/07/22 02:10:18;;;;;;;;;;;19.70;83.40;;;;;;5021505;28;20366;-66
2022/07/22 02:12:44;;;;;;;;;;;19.60;83.20;;;;;;5021368;28;19960;-66
2022/07/22 02:15:10;;;;;;;;;;;19.60;83.20;;;;;;5021216;28;20354;-66
2022/07/22 02:17:36;;;;;;;;;;;19.60;83.20;;;;;;5014989;28;20747;-66
2022/07/22 02:20:02;;;;;;;;;;;19.60;83.10;;;;;;5020481;28;19917;-66
2022/07/22 02:22:27;;;;;;;;;;;19.60;83.20;;;;;;5021756;28;19917;-66
2022/07/22 02:24:53;;;;;;;;;;;19.60;83.20;;;;;;5024286;28;20567;-66
2022/07/22 02:27:18;;;;;;;;;;;19.60;83.20;;;;;;5023862;28;20293;-66
2022/07/22 02:29:44;;;;;;;;;;;19.60;83.40;;;;;;5024474;28;19921;-66
2022/07/22 02:32:09;;;;;;;;;;;19.60;84.00;;;;;;5035344;28;19921;-66
2022/07/22 02:34:35;;;;;;;;;;;19.60;83.50;;;;;;5041166;28;19913;-66
2022/07/22 02:37:00;;;;;;;;;;;19.60;83.50;;;;;;5023893;28;20088;-66
2022/07/22 02:39:26;;;;;;;;;;;19.60;83.30;;;;;;5023846;28;19913;-66
2022/07/22 02:41:51;;;;;;;;;;;19.60;83.30;;;;;;5024355;28;19998;-66
2022/07/22 02:44:17;;;;;;;;;;;19.60;83.40;;;;;;5024231;28;19966;-66
2022/07/22 02:46:42;;;;;;;;;;;19.60;83.30;;;;;;5023466;28;20277;-66
2022/07/22 02:49:08;;;;;;;;;;;19.50;83.30;;;;;;5024352;28;19923;-66
2022/07/22 02:51:33;;;;;;;;;;;19.50;83.40;;;;;;5024518;28;19964;-66
2022/07/22 02:53:59;;;;;;;;;;;19.50;83.30;;;;;;5024451;28;19913;-66
2022/07/22 02:56:24;;;;;;;;;;;19.50;83.50;;;;;;5023906;28;20541;-66
2022/07/22 02:58:52;;;;;;;;;;;19.50;83.50;;;;;;5023957;28;19921;-66
2022/07/22 03:01:18;;;;;;;;;;;19.50;83.60;;;;;;5024334;28;19973;-66
2022/07/22 03:03:44;;;;;;;;;;;19.50;83.50;;;;;;5014475;28;19960;-66
2022/07/22 03:06:10;;;;;;;;;;;19.50;83.30;;;;;;5011418;28;19964;-66
2022/07/22 03:08:36;;;;;;;;;;;19.50;83.40;;;;;;5023505;28;19925;-66
2022/07/22 03:11:01;;;;;;;;;;;19.50;83.40;;;;;;5024355;28;19926;-66
2022/07/22 03:13:27;;;;;;;;;;;19.50;83.60;;;;;;5024420;28;19916;-66
2022/07/22 03:15:52;;;;;;;;;;;19.50;83.50;;;;;;5023810;28;19913;-66
2022/07/22 03:18:18;;;;;;;;;;;19.50;83.50;;;;;;5024046;28;19941;-66
2022/07/22 03:20:43;;;;;;;;;;;19.40;83.70;;;;;;5025236;28;19917;-66
2022/07/22 03:23:09;;;;;;;;;;;19.40;83.70;;;;;;5024152;28;19935;-66
2022/07/22 03:25:34;;;;;;;;;;;19.40;83.60;;;;;;5024394;28;20414;-66
2022/07/22 03:28:00;;;;;;;;;;;19.50;83.70;;;;;;5023798;28;19917;-66
2022/07/22 03:30:25;;;;;;;;;;;19.40;83.50;;;;;;5023766;28;20428;-66
2022/07/22 03:32:51;;;;;;;;;;;19.40;83.50;;;;;;5042182;28;19917;-66
2022/07/22 03:35:17;;;;;;;;;;;19.40;83.60;;;;;;5016637;28;20015;-66
2022/07/22 03:37:43;;;;;;;;;;;19.40;83.50;;;;;;5023403;28;19917;-66
2022/07/22 03:40:09;;;;;;;;;;;19.40;83.90;;;;;;5041595;28;19909;-66
2022/07/22 03:42:35;;;;;;;;;;;19.40;83.80;;;;;;5042050;28;19917;-66
2022/07/22 03:45:00;;;;;;;;;;;19.40;83.60;;;;;;5041844;28;19924;-66
2022/07/22 03:47:26;;;;;;;;;;;19.40;83.60;;;;;;5041737;28;19923;-66
2022/07/22 03:49:52;;;;;;;;;;;19.40;83.80;;;;;;5023461;28;20296;-66
2022/07/22 03:52:17;;;;;;;;;;;19.40;83.60;;;;;;5041605;28;19922;-66
2022/07/22 03:54:43;;;;;;;;;;;19.40;83.80;;;;;;5026466;28;20011;-66
2022/07/22 03:57:09;;;;;;;;;;;19.30;84.30;;;;;;5023223;28;20380;-66
2022/07/22 03:59:35;;;;;;;;;;;19.30;83.60;;;;;;5005387;28;19917;-66
2022/07/22 04:02:01;;;;;;;;;;;19.30;83.70;;;;;;5023054;28;19914;-66
2022/07/22 04:04:26;;;;;;;;;;;19.30;83.60;;;;;;5022927;28;19913;-66
2022/07/22 04:06:52;;;;;;;;;;;19.30;83.90;;;;;;5022701;28;19913;-66
2022/07/22 04:09:17;;;;;;;;;;;19.30;83.90;;;;;;5019835;28;19998;-66
2022/07/22 04:11:43;;;;;;;;;;;19.30;83.80;;;;;;5022791;28;19924;-66
2022/07/22 04:14:09;;;;;;;;;;;19.30;83.70;;;;;;5023079;28;19917;-66
2022/07/22 04:16:34;;;;;;;;;;;19.30;83.70;;;;;;5022705;28;19917;-66
2022/07/22 04:19:00;;;;;;;;;;;19.30;83.80;;;;;;5005135;28;19913;-66
2022/07/22 04:21:26;;;;;;;;;;;19.30;83.70;;;;;;5022735;28;19913;-66
2022/07/22 04:23:52;;;;;;;;;;;19.30;83.70;;;;;;5022712;28;19921;-66
2022/07/22 04:26:18;;;;;;;;;;;19.30;83.80;;;;;;5022098;28;19909;-66
2022/07/22 04:28:43;;;;;;;;;;;19.30;83.80;;;;;;5038508;28;19917;-66
2022/07/22 04:31:09;;;;;;;;;;;19.20;83.80;;;;;;5020678;28;19927;-66
2022/07/22 04:33:34;;;;;;;;;;;19.20;83.90;;;;;;5022252;28;20477;-66
2022/07/22 04:36:00;;;;;;;;;;;19.30;84.00;;;;;;5022224;28;20632;-66
2022/07/22 04:38:25;;;;;;;;;;;19.30;83.90;;;;;;5028640;28;19913;-66
2022/07/22 04:40:51;;;;;;;;;;;19.30;83.70;;;;;;5040500;28;19917;-66
2022/07/22 04:43:16;;;;;;;;;;;19.30;83.90;;;;;;5040142;28;19921;-66
2022/07/22 04:45:42;;;;;;;;;;;19.30;83.90;;;;;;5034614;28;20020;-66
2022/07/22 04:48:07;;;;;;;;;;;19.30;84.00;;;;;;5024172;28;20310;-66
2022/07/22 04:50:35;;;;;;;;;;;19.20;83.80;;;;;;5039767;28;19942;-66
2022/07/22 04:53:00;;;;;;;;;;;19.20;83.80;;;;;;5039892;28;20734;-66
2022/07/22 04:55:26;;;;;;;;;;;19.20;83.90;;;;;;5040083;28;19913;-66
2022/07/22 04:57:51;;;;;;;;;;;19.20;83.90;;;;;;5040118;28;20007;-66
2022/07/22 05:00:17;;;;;;;;;;;19.30;84.10;;;;;;5029343;28;20752;-66
2022/07/22 05:02:42;;;;;;;;;;;19.20;83.90;;;;;;5040422;28;19924;-66
2022/07/22 05:05:08;;;;;;;;;;;19.30;84.60;;;;;;5034264;28;19913;-66
2022/07/22 05:07:33;;;;;;;;;;;19.30;83.90;;;;;;5021882;28;19917;-66
2022/07/22 05:09:59;;;;;;;;;;;19.30;84.00;;;;;;5037326;28;20377;-66
2022/07/22 05:12:24;;;;;;;;;;;19.30;83.90;;;;;;5021947;28;19913;-66
2022/07/22 05:14:50;;;;;;;;;;;19.20;83.90;;;;;;5004075;28;19921;-66
2022/07/22 05:17:15;;;;;;;;;;;19.20;83.90;;;;;;5021527;28;19981;-66
2022/07/22 05:19:41;;;;;;;;;;;19.30;83.90;;;;;;5021773;28;19917;-66
2022/07/22 05:22:07;;;;;;;;;;;19.20;83.70;;;;;;5021753;28;19913;-66
2022/07/22 05:24:32;;;;;;;;;;;19.30;83.90;;;;;;5022123;28;19913;-66
2022/07/22 05:26:58;;;;;;;;;;;19.30;83.90;;;;;;5021346;28;19913;-66
2022/07/22 05:29:23;;;;;;;;;;;19.30;83.90;;;;;;5021773;28;19920;-66
2022/07/22 05:31:49;;;;;;;;;;;19.30;83.80;;;;;;5021774;28;19917;-66
2022/07/22 05:34:14;;;;;;;;;;;19.30;83.80;;;;;;5023662;28;19933;-66
2022/07/22 05:36:40;;;;;;;;;;;19.30;83.80;;;;;;5030282;28;20443;-66
2022/07/22 05:39:06;;;;;;;;;;;19.40;83.90;;;;;;5035262;28;19917;-66
2022/07/22 05:41:31;;;;;;;;;;;19.40;83.70;;;;;;5039678;28;19917;-66
2022/07/22 05:43:57;;;;;;;;;;;19.30;83.70;;;;;;5033036;28;19914;-66
2022/07/22 05:46:22;;;;;;;;;;;19.40;83.80;;;;;;5020793;28;20365;-66
2022/07/22 05:48:48;;;;;;;;;;;19.40;83.70;;;;;;5021159;28;19917;-66
2022/07/22 05:51:14;;;;;;;;;;;19.40;83.50;;;;;;5027597;28;19917;-66
2022/07/22 05:53:40;;;;;;;;;;;19.40;83.40;;;;;;5039908;28;20035;-66
2022/07/22 05:56:05;;;;;;;;;;;19.40;83.60;;;;;;5015453;28;19913;-66
2022/07/22 05:58:31;;;;;;;;;;;19.40;83.40;;;;;;5024374;28;20019;-67
2022/07/22 06:00:58;;;;;;;;;;;19.40;83.40;;;;;;5025076;28;19966;-66
2022/07/22 06:03:24;;;;;;;;;;;19.40;83.50;;;;;;5025194;28;19910;-67
2022/07/22 06:05:49;;;;;;;;;;;19.50;83.40;;;;;;5025083;28;20434;-66
2022/07/22 06:08:15;;;;;;;;;;;19.50;83.30;;;;;;5024215;28;20255;-66
2022/07/22 06:10:40;;;;;;;;;;;19.50;83.20;;;;;;5024478;28;19920;-66
2022/07/22 06:13:06;;;;;;;;;;;19.50;83.20;;;;;;5024327;28;20036;-66
2022/07/22 06:15:31;;;;;;;;;;;19.50;83.30;;;;;;5024491;28;20637;-66
2022/07/22 06:17:57;;;;;;;;;;;19.60;83.10;;;;;;5024410;28;19912;-66
2022/07/22 06:20:22;;;;;;;;;;;19.60;83.20;;;;;;5024525;28;20463;-67
2022/07/22 06:22:48;;;;;;;;;;;19.60;83.10;;;;;;5025016;28;19914;-67
2022/07/22 06:25:14;;;;;;;;;;;19.60;83.20;;;;;;5024580;28;19947;-66
2022/07/22 06:27:39;;;;;;;;;;;19.60;83.00;;;;;;5024322;28;20632;-67
2022/07/22 06:30:05;;;;;;;;;;;19.60;83.00;;;;;;5024524;28;20016;-67
2022/07/22 06:32:30;;;;;;;;;;;19.60;83.00;;;;;;5024727;28;19956;-66
2022/07/22 06:34:56;;;;;;;;;;;19.60;83.00;;;;;;5025916;28;19913;-66
2022/07/22 06:37:21;;;;;;;;;;;19.70;82.90;;;;;;5042415;28;19927;-66
2022/07/22 06:39:47;;;;;;;;;;;19.70;82.70;;;;;;5040182;28;19972;-66
2022/07/22 06:42:13;;;;;;;;;;;19.70;82.70;;;;;;5029022;28;20036;-67
2022/07/22 06:44:39;;;;;;;;;;;19.70;82.70;;;;;;5038163;28;19960;-67
2022/07/22 06:47:04;;;;;;;;;;;19.70;82.60;;;;;;5036337;28;20705;-66
2022/07/22 06:49:30;;;;;;;;;;;19.70;82.70;;;;;;5006674;28;19920;-66
2022/07/22 06:51:56;;;;;;;;;;;19.70;82.70;;;;;;5006662;28;20062;-66
2022/07/22 06:54:21;;;;;;;;;;;19.70;82.70;;;;;;5023908;28;19925;-67
2022/07/22 06:56:46;;;;;;;;;;;19.70;82.70;;;;;;5023785;28;19932;-67
2022/07/22 06:59:12;;;;;;;;;;;19.70;82.80;;;;;;5005858;28;20457;-67
2022/07/22 07:01:37;;;;;;;;;;;19.80;82.80;;;;;;5023892;28;20009;-67
2022/07/22 07:04:03;;;;;;;;;;;19.80;82.60;;;;;;5024019;28;19919;-66
2022/07/22 07:06:29;;;;;;;;;;;19.80;82.60;;;;;;5005551;28;19920;-67
2022/07/22 07:08:54;;;;;;;;;;;19.80;82.50;;;;;;5022946;28;20352;-67
2022/07/22 07:11:20;;;;;;;;;;;19.90;82.40;;;;;;5023865;28;19915;-67
2022/07/22 07:13:45;;;;;;;;;;;19.80;82.40;;;;;;5023845;28;19913;-66
2022/07/22 07:16:11;;;;;;;;;;;19.90;82.30;;;;;;5023378;28;19917;-67
2022/07/22 07:18:36;;;;;;;;;;;19.90;82.40;;;;;;5023642;28;20475;-66
2022/07/22 07:21:03;;;;;;;;;;;19.90;82.30;;;;;;5023819;28;19924;-66
2022/07/22 07:23:28;;;;;;;;;;;19.90;82.40;;;;;;5023885;28;19989;-66
2022/07/22 07:25:54;;;;;;;;;;;19.90;82.30;;;;;;5023582;28;19920;-67
2022/07/22 07:28:20;;;;;;;;;;;20.00;82.20;;;;;;5023510;28;20020;-66
2022/07/22 07:30:45;;;;;;;;;;;20.00;82.30;;;;;;5023806;28;20656;-66
2022/07/22 07:33:11;;;;;;;;;;;20.00;82.10;;;;;;5029227;28;19913;-66
2022/07/22 07:35:36;;;;;;;;;;;20.00;82.10;;;;;;5029988;28;19917;-67
2022/07/22 07:38:02;;;;;;;;;;;20.00;81.90;;;;;;5026852;28;20356;-66
2022/07/22 07:40:27;;;;;;;;;;;20.10;81.90;;;;;;5042232;28;19909;-67
2022/07/22 07:42:53;;;;;;;;;;;20.10;82.00;;;;;;5023510;28;20016;-67
2022/07/22 07:45:18;;;;;;;;;;;20.10;81.90;;;;;;5023204;28;19921;-67
2022/07/22 07:47:45;;;;;;;;;;;20.10;81.80;;;;;;5023172;28;19944;-67
2022/07/22 07:50:11;;;;;;;;;;;20.10;81.80;;;;;;5023210;28;19940;-67
2022/07/22 07:52:37;;;;;;;;;;;20.10;81.80;;;;;;5023447;28;20711;-67
2022/07/22 07:55:03;;;;;;;;;;;20.10;81.60;;;;;;5022901;28;19913;-67
2022/07/22 07:57:29;;;;;;;;;;;20.20;81.60;;;;;;5022938;28;19931;-67
2022/07/22 07:59:54;;;;;;;;;;;20.20;81.50;;;;;;5022891;28;19936;-66
2022/07/22 08:02:20;;;;;;;;;;;20.20;81.30;;;;;;5024763;28;19953;-66
2022/07/22 08:04:45;;;;;;;;;;;20.20;81.30;;;;;;5038622;28;19952;-66
2022/07/22 08:07:11;;;;;;;;;;;20.20;81.20;;;;;;5038033;28;20007;-66
2022/07/22 08:09:37;;;;;;;;;;;20.20;81.10;;;;;;5040879;28;19917;-66
2022/07/22 08:12:03;;;;;;;;;;;20.20;81.10;;;;;;5041300;28;19912;-66
2022/07/22 08:14:28;;;;;;;;;;;20.30;80.90;;;;;;5022181;28;19920;-66
2022/07/22 08:16:54;;;;;;;;;;;20.30;81.50;;;;;;5040693;28;19908;-66
2022/07/22 08:19:19;;;;;;;;;;;20.30;80.70;;;;;;5041041;28;19916;-66
2022/07/22 08:21:45;;;;;;;;;;;20.30;80.60;;;;;;5039771;28;19920;-66
2022/07/22 08:24:10;;;;;;;;;;;20.30;80.50;;;;;;5022211;28;20020;-66
2022/07/22 08:26:36;;;;;;;;;;;20.40;80.40;;;;;;5016581;28;20688;-66
2022/07/22 08:29:02;;;;;;;;;;;20.40;80.20;;;;;;5021885;28;20576;-66
2022/07/22 08:31:28;;;;;;;;;;;20.40;80.10;;;;;;5022544;28;19913;-66
2022/07/22 08:33:54;;;;;;;;;;;20.50;80.00;;;;;;5022202;28;19923;-66
2022/07/22 08:36:19;;;;;;;;;;;20.50;79.90;;;;;;5003158;28;19961;-66
2022/07/22 08:38:45;;;;;;;;;;;20.50;79.90;;;;;;5025276;28;20024;-67
2022/07/22 08:41:10;;;;;;;;;;;20.50;79.80;;;;;;5021643;28;19923;-66
2022/07/22 08:43:39;;;;;;;;;;;20.50;79.70;;;;;;5022129;28;20426;-66
2022/07/22 08:46:05;;;;;;;;;;;20.60;79.80;;;;;;5021907;28;20021;-67
2022/07/22 08:48:30;;;;;;;;;;;20.60;79.80;;;;;;5003877;28;20690;-67
2022/07/22 08:50:57;;;;;;;;;;;20.60;79.70;;;;;;5021385;28;22132;-67
2022/07/22 08:53:23;;;;;;;;;;;20.60;79.70;;;;;;5022041;28;19920;-67
2022/07/22 08:55:48;;;;;;;;;;;20.60;79.70;;;;;;5022041;28;19952;-66
2022/07/22 08:58:15;;;;;;;;;;;20.60;79.60;;;;;;5022049;28;19919;-67
2022/07/22 09:00:40;;;;;;;;;;;20.70;79.70;;;;;;5022151;28;19913;-67
2022/07/22 09:03:21;;;;;;;;;;;20.70;79.70;;;;;;5021633;28;20297;-67
2022/07/22 09:05:47;;;;;;;;;;;20.70;79.50;;;;;;5027174;28;19919;-67
2022/07/22 09:08:13;;;;;;;;;;;20.70;79.50;;;;;;5019746;28;19937;-67
2022/07/22 09:10:39;;;;;;;;;;;20.70;79.40;;;;;;5021248;28;20061;-67
2022/07/22 09:13:06;;;;;;;;;;;20.70;79.40;;;;;;5021216;28;19913;-67
2022/07/22 09:15:33;;;;;;;;;;;20.80;79.40;;;;;;5003178;28;20010;-67
2022/07/22 09:17:59;;;;;;;;;;;20.80;79.40;;;;;;5020536;28;19930;-67
2022/07/22 09:20:26;;;;;;;;;;;20.80;79.30;;;;;;5020412;28;19968;-67
2022/07/22 09:22:51;;;;;;;;;;;20.80;79.20;;;;;;5021030;28;19913;-67
2022/07/22 09:25:17;;;;;;;;;;;20.80;79.30;;;;;;5002819;28;20266;-67
2022/07/22 09:27:43;;;;;;;;;;;20.80;79.10;;;;;;5020916;28;20349;-67
2022/07/22 09:30:12;;;;;;;;;;;20.80;79.00;;;;;;5021059;28;20030;-66
2022/07/22 09:32:41;;;;;;;;;;;20.90;78.90;;;;;;5005156;28;20628;-67
2022/07/22 09:35:07;;;;;;;;;;;20.90;78.80;;;;;;5024584;28;19917;-67
2022/07/22 09:37:33;;;;;;;;;;;20.90;78.70;;;;;;5023167;28;20419;-67
2022/07/22 09:40:19;;;;;;;;;;;20.90;78.70;;;;;;5040446;28;19999;-67
2022/07/22 09:42:45;;;;;;;;;;;20.90;78.60;;;;;;5041895;28;20735;-67
2022/07/22 09:45:11;;;;;;;;;;;21.00;78.60;;;;;;5024248;28;19921;-67
2022/07/22 09:47:40;;;;;;;;;;;21.00;78.60;;;;;;5037341;28;20518;-67
2022/07/22 09:50:13;;;;;;;;;;;21.00;78.50;;;;;;5023365;28;19956;-66
2022/07/22 09:52:40;;;;;;;;;;;21.00;78.30;;;;;;5023950;28;19919;-66
2022/07/22 09:55:06;;;;;;;;;;;21.10;78.90;;;;;;5023755;28;19913;-67
2022/07/22 09:57:32;;;;;;;;;;;21.10;78.10;;;;;;5023711;28;19935;-66
2022/07/22 09:59:57;;;;;;;;;;;21.20;78.00;;;;;;5006345;28;19913;-66
2022/07/22 10:02:23;;;;;;;;;;;21.20;77.80;;;;;;5023928;28;19940;-66
2022/07/22 10:04:49;;;;;;;;;;;21.20;77.70;;;;;;5024001;28;20400;-67
2022/07/22 10:07:14;;;;;;;;;;;21.20;77.70;;;;;;5021932;28;19945;-67
2022/07/22 10:09:42;;;;;;;;;;;21.20;77.70;;;;;;5023689;28;19935;-67
2022/07/22 10:12:08;;;;;;;;;;;21.20;77.70;;;;;;5041486;28;19916;-66
2022/07/22 10:14:34;;;;;;;;;;;21.30;77.90;;;;;;5042322;28;19913;-66
2022/07/22 10:16:59;;;;;;;;;;;21.30;78.00;;;;;;5041846;28;19932;-67
2022/07/22 10:19:25;;;;;;;;;;;21.30;77.90;;;;;;5038527;28;19958;-67
2022/07/22 10:21:50;;;;;;;;;;;21.30;77.90;;;;;;5041963;28;19965;-67
2022/07/22 10:24:23;;;;;;;;;;;21.30;77.80;;;;;;5041932;28;19912;-67
2022/07/22 10:26:51;;;;;;;;;;;21.30;77.90;;;;;;5040943;28;19916;-67
2022/07/22 10:29:29;;;;;;;;;;;21.30;77.80;;;;;;5038875;28;20020;-67
2022/07/22 10:32:13;;;;;;;;;;;21.30;77.70;;;;;;5023221;28;19924;-67
2022/07/22 10:34:38;;;;;;;;;;;21.30;77.60;;;;;;5023174;28;19953;-67
2022/07/22 10:37:24;;;;;;;;;;;21.30;77.40;;;;;;5022245;28;19917;-67
2022/07/22 10:40:16;;;;;;;;;;;21.40;77.40;;;;;;5040320;28;20528;-66
2022/07/22 10:43:00;;;;;;;;;;;21.40;77.30;;;;;;5022898;28;19962;-67
2022/07/22 10:45:30;;;;;;;;;;;21.40;77.10;;;;;;5004886;28;19921;-67
2022/07/22 10:47:57;;;;;;;;;;;21.40;76.90;;;;;;5022854;28;20621;-67
2022/07/22 10:50:35;;;;;;;;;;;21.50;76.80;;;;;;5023474;28;19929;-66
2022/07/22 10:53:21;;;;;;;;;;;21.50;76.70;;;;;;5023393;28;20424;-67
2022/07/22 10:56:06;;;;;;;;;;;21.50;76.60;;;;;;5005303;28;19913;-67
2022/07/22 10:58:32;;;;;;;;;;;21.60;76.30;;;;;;5022816;28;20008;-67
2022/07/22 11:01:04;;;;;;;;;;;21.60;76.10;;;;;;5023006;28;20007;-67
2022/07/22 11:03:30;;;;;;;;;;;21.70;76.10;;;;;;5022685;28;19914;-67
2022/07/22 11:06:01;;;;;;;;;;;21.70;76.00;;;;;;5023181;28;19909;-67
2022/07/22 11:08:26;;;;;;;;;;;21.80;76.00;;;;;;5023192;28;19925;-67
2022/07/22 11:10:52;;;;;;;;;;;21.80;75.90;;;;;;5023649;28;19924;-67
2022/07/22 11:13:41;;;;;;;;;;;21.90;76.00;;;;;;5022788;28;19913;-67
2022/07/22 11:16:14;;;;;;;;;;;21.90;75.90;;;;;;5023254;28;20014;-67
2022/07/22 11:18:45;;;;;;;;;;;21.90;75.90;;;;;;5023070;28;19920;-67
2022/07/22 11:21:11;;;;;;;;;;;21.90;75.90;;;;;;5022805;28;19913;-67
2022/07/22 11:23:39;;;;;;;;;;;21.90;76.00;;;;;;5022355;28;19913;-67
2022/07/22 11:26:06;;;;;;;;;;;21.90;76.00;;;;;;5022171;28;19917;-67
2022/07/22 11:28:31;;;;;;;;;;;21.90;76.00;;;;;;5004414;28;19928;-67
2022/07/22 11:31:07;;;;;;;;;;;21.90;76.10;;;;;;5022824;28;20267;-67
2022/07/22 11:33:32;;;;;;;;;;;21.90;76.10;;;;;;5022645;28;19921;-67
2022/07/22 11:36:04;;;;;;;;;;;21.90;76.10;;;;;;5022437;28;19977;-67
2022/07/22 11:38:43;;;;;;;;;;;21.90;76.10;;;;;;5026926;28;19991;-67
2022/07/22 11:41:09;;;;;;;;;;;21.90;76.10;;;;;;5020327;28;20254;-67
2022/07/22 11:43:38;;;;;;;;;;;21.90;76.10;;;;;;5021885;28;19936;-67
2022/07/22 11:46:04;;;;;;;;;;;21.90;76.00;;;;;;5023730;28;19946;-67
2022/07/22 11:48:29;;;;;;;;;;;21.90;76.00;;;;;;5022935;28;20011;-67
2022/07/22 11:50:59;;;;;;;;;;;21.90;75.90;;;;;;5023609;28;19910;-67
2022/07/22 11:53:25;;;;;;;;;;;21.90;75.70;;;;;;5023022;28;20005;-67
2022/07/22 11:55:50;;;;;;;;;;;22.00;75.60;;;;;;5022532;28;20033;-67
2022/07/22 11:58:15;;;;;;;;;;;22.00;75.50;;;;;;5022522;28;19917;-67
2022/07/22 12:00:42;;;;;;;;;;;22.10;75.40;;;;;;5022095;28;19917;-67
2022/07/22 12:03:08;;;;;;;;;;;22.10;75.20;;;;;;5022382;27;19961;-67
2022/07/22 12:05:34;;;;;;;;;;;22.20;75.20;;;;;;5022932;28;19913;-67
2022/07/22 12:08:00;;;;;;;;;;;22.20;74.90;;;;;;5038373;28;19917;-67
2022/07/22 12:10:25;;;;;;;;;;;22.30;74.80;;;;;;5023369;28;19913;-67
2022/07/22 12:12:51;;;;;;;;;;;22.40;74.70;;;;;;5022901;28;20433;-67
2022/07/22 12:15:17;;;;;;;;;;;22.50;74.50;;;;;;5025960;28;20652;-67
2022/07/22 12:17:42;;;;;;;;;;;22.60;74.10;;;;;;5041565;28;19916;-67
2022/07/22 12:20:12;;;;;;;;;;;22.60;74.00;;;;;;5041278;28;19913;-67
2022/07/22 12:22:44;;;;;;;;;;;22.70;73.90;;;;;;5022831;28;19984;-67
2022/07/22 12:25:09;;;;;;;;;;;22.70;73.80;;;;;;5034203;28;20420;-67
2022/07/22 12:27:35;;;;;;;;;;;22.70;73.90;;;;;;5007119;28;19913;-67
2022/07/22 12:30:10;;;;;;;;;;;22.70;73.70;;;;;;5004450;28;19913;-67
2022/07/22 12:32:36;;;;;;;;;;;22.80;73.70;;;;;;5022316;28;20049;-67
2022/07/22 12:35:03;;;;;;;;;;;22.80;73.60;;;;;;5022445;28;20438;-67
2022/07/22 12:37:33;;;;;;;;;;;22.80;73.40;;;;;;5007620;28;19917;-67
2022/07/22 12:39:59;;;;;;;;;;;23.00;73.00;;;;;;5034278;28;19917;-67
2022/07/22 12:42:26;;;;;;;;;;;23.00;72.60;;;;;;5028662;28;19909;-67
2022/07/22 12:44:53;;;;;;;;;;;23.10;72.50;;;;;;5003679;28;20265;-67
2022/07/22 12:47:37;;;;;;;;;;;23.20;72.20;;;;;;5021125;28;20019;-67
2022/07/22 12:50:21;;;;;;;;;;;23.30;72.00;;;;;;5021936;28;19958;-67
2022/07/22 12:52:48;;;;;;;;;;;23.30;71.90;;;;;;5021544;28;19913;-67
2022/07/22 12:55:13;;;;;;;;;;;23.40;71.50;;;;;;5021645;28;19951;-67
2022/07/22 12:57:39;;;;;;;;;;;23.60;71.50;;;;;;5021464;28;20486;-67
2022/07/22 13:00:05;;;;;;;;;;;23.60;71.40;;;;;;5021890;28;19913;-67
2022/07/22 13:02:30;;;;;;;;;;;23.60;71.40;;;;;;5021831;28;19919;-67
2022/07/22 13:04:56;;;;;;;;;;;23.60;71.80;;;;;;5022590;28;19995;-67
2022/07/22 13:07:21;;;;;;;;;;;23.60;71.20;;;;;;5020440;28;20024;-67
2022/07/22 13:09:47;;;;;;;;;;;23.70;71.10;;;;;;5017982;28;19921;-67
2022/07/22 13:12:12;;;;;;;;;;;23.80;71.00;;;;;;5018557;28;19921;-67
2022/07/22 13:14:38;;;;;;;;;;;23.80;70.80;;;;;;5004430;28;19960;-67
2022/07/22 13:17:03;;;;;;;;;;;23.80;70.60;;;;;;5040068;28;19912;-67
2022/07/22 13:19:29;;;;;;;;;;;23.90;71.00;;;;;;5040536;28;20448;-67
2022/07/22 13:21:54;;;;;;;;;;;24.10;70.30;;;;;;5033263;28;20008;-67
2022/07/22 13:24:20;;;;;;;;;;;24.10;70.10;;;;;;5022392;28;19952;-67
2022/07/22 13:26:45;;;;;;;;;;;24.10;69.90;;;;;;5021691;28;19919;-67
2022/07/22 13:29:11;;;;;;;;;;;24.20;70.00;;;;;;5022286;28;20345;-67
2022/07/22 13:31:37;;;;;;;;;;;24.20;69.90;;;;;;5022429;28;19917;-67
2022/07/22 13:34:03;;;;;;;;;;;24.30;69.70;;;;;;5022164;28;19992;-67
2022/07/22 13:36:32;;;;;;;;;;;24.20;69.90;;;;;;5006213;28;20020;-67
2022/07/22 13:38:57;;;;;;;;;;;24.20;70.20;;;;;;5025959;28;20454;-67
2022/07/22 13:41:23;;;;;;;;;;;24.20;70.50;;;;;;5026445;28;19909;-67
2022/07/22 13:43:49;;;;;;;;;;;24.20;70.70;;;;;;5040179;28;19917;-67
2022/07/22 13:46:15;;;;;;;;;;;24.20;70.80;;;;;;5039877;28;19948;-67
2022/07/22 13:48:40;;;;;;;;;;;24.20;70.80;;;;;;5040267;28;19963;-67
2022/07/22 13:51:06;;;;;;;;;;;24.30;70.80;;;;;;5039667;28;19970;-67
2022/07/22 13:53:32;;;;;;;;;;;24.30;70.60;;;;;;5027168;28;19925;-67
2022/07/22 13:55:57;;;;;;;;;;;24.20;70.60;;;;;;5021616;28;20338;-67
2022/07/22 13:58:22;;;;;;;;;;;24.30;70.60;;;;;;5021291;28;19916;-67
2022/07/22 14:00:48;;;;;;;;;;;24.30;70.50;;;;;;5021752;28;19980;-68
2022/07/22 14:03:13;;;;;;;;;;;24.30;70.30;;;;;;5003759;28;19910;-67
2022/07/22 14:05:39;;;;;;;;;;;24.40;70.20;;;;;;5021069;28;19913;-67
2022/07/22 14:08:05;;;;;;;;;;;24.40;70.20;;;;;;5021037;28;20533;-67
2022/07/22 14:10:30;;;;;;;;;;;24.50;70.20;;;;;;5021109;28;19920;-67
2022/07/22 14:12:56;;;;;;;;;;;24.50;70.00;;;;;;5003837;28;19913;-67